createdAt,value
2022-08-26T00:02:02.893Z,100939.13
2022-08-26T00:04:31.350Z,100940.09
2022-08-26T00:06:59.989Z,100932.16
2022-08-26T00:09:30.127Z,100930.53
2022-08-26T00:11:56.764Z,100923.38
2022-08-26T00:14:30.930Z,100931.69
2022-08-26T00:16:58.230Z,100933.22
2022-08-26T00:19:24.713Z,100933.13
2022-08-26T00:21:52.070Z,100925.16
2022-08-26T00:24:21.917Z,100930.22
2022-08-26T00:26:49.668Z,100925.84
2022-08-26T00:29:16.678Z,100930.69
2022-08-26T00:31:45.119Z,100926.56
2022-08-26T00:34:12.744Z,100927.16
2022-08-26T00:36:40.633Z,100920.91
2022-08-26T00:39:16.279Z,100919.41
2022-08-26T00:41:43.294Z,100923.22
2022-08-26T00:44:11.101Z,100913.44
2022-08-26T00:46:46.881Z,100910.56
2022-08-26T00:49:43.583Z,100918.88
2022-08-26T00:52:15.671Z,100912.97
2022-08-26T00:54:49.233Z,100915.84
2022-08-26T00:57:19.119Z,100919.88
2022-08-26T00:59:51.242Z,100912.94
2022-08-26T01:02:19.963Z,100914.00
2022-08-26T01:04:48.236Z,100920.34
2022-08-26T01:07:30.265Z,100913.66
2022-08-26T01:09:59.900Z,100915.97
2022-08-26T01:12:28.752Z,100919.28
2022-08-26T01:14:55.594Z,100912.94
2022-08-26T01:17:23.131Z,100921.00
2022-08-26T01:20:04.085Z,100916.97
2022-08-26T01:22:42.413Z,100914.09
2022-08-26T01:25:10.662Z,100912.50
2022-08-26T01:27:37.729Z,100912.69
2022-08-26T01:30:06.524Z,100910.72
2022-08-26T01:32:36.439Z,100913.75
2022-08-26T01:35:07.530Z,100918.50
2022-08-26T01:37:39.036Z,100913.66
2022-08-26T01:40:10.427Z,100912.84
2022-08-26T01:42:37.489Z,100912.84
2022-08-26T01:45:13.464Z,100911.09
2022-08-26T01:47:42.682Z,100915.84
2022-08-26T01:50:27.552Z,100914.38
2022-08-26T01:52:56.825Z,100916.34
2022-08-26T01:55:25.532Z,100912.41
2022-08-26T01:58:05.255Z,100913.31
2022-08-26T02:00:35.211Z,100910.22
2022-08-26T02:03:17.242Z,100909.97
2022-08-26T02:05:48.818Z,100909.19
2022-08-26T02:08:25.314Z,100907.81
2022-08-26T02:10:54.851Z,100903.09
2022-08-26T02:13:23.075Z,100912.19
2022-08-26T02:15:52.100Z,100909.09
2022-08-26T02:18:20.854Z,100911.16
2022-08-26T02:20:51.636Z,100907.22
2022-08-26T02:23:19.536Z,100904.69
2022-08-26T02:26:04.982Z,100913.78
2022-08-26T02:28:41.655Z,100909.44
2022-08-26T02:31:09.283Z,100910.47
2022-08-26T02:33:36.594Z,100903.22
2022-08-26T02:36:21.998Z,100907.75
2022-08-26T02:38:48.478Z,100899.19
2022-08-26T02:41:15.107Z,100896.09
2022-08-26T02:43:41.563Z,100902.69
2022-08-26T02:46:08.338Z,100901.75
2022-08-26T02:48:36.482Z,100897.59
2022-08-26T02:51:04.825Z,100900.84
2022-08-26T02:53:31.849Z,100893.34
2022-08-26T02:56:03.119Z,100895.19
2022-08-26T02:58:30.183Z,100891.53
2022-08-26T03:00:56.651Z,100890.97
2022-08-26T03:03:23.730Z,100894.06
2022-08-26T03:05:50.841Z,100887.94
2022-08-26T03:08:17.505Z,100883.69
2022-08-26T03:10:44.078Z,100882.50
2022-08-26T03:13:10.563Z,100882.41
2022-08-26T03:15:37.706Z,100879.97
2022-08-26T03:18:08.207Z,100879.75
2022-08-26T03:20:35.262Z,100875.03
2022-08-26T03:23:01.736Z,100881.69
2022-08-26T03:25:29.492Z,100883.31
2022-08-26T03:27:55.954Z,100873.16
2022-08-26T03:30:44.206Z,100875.13
2022-08-26T03:33:13.914Z,100874.09
2022-08-26T03:35:43.434Z,100870.66
2022-08-26T03:38:10.858Z,100870.88
2022-08-26T03:40:39.096Z,100867.06
2022-08-26T03:43:13.454Z,100867.19
2022-08-26T03:45:43.185Z,100867.09
2022-08-26T03:48:12.787Z,100871.94
2022-08-26T03:50:39.373Z,100869.28
2022-08-26T03:53:12.950Z,100869.84
2022-08-26T03:55:41.254Z,100871.34
2022-08-26T03:58:11.528Z,100871.22
2022-08-26T04:00:38.243Z,100863.28
2022-08-26T04:03:05.349Z,100872.47
2022-08-26T04:05:39.405Z,100865.47
2022-08-26T04:08:06.762Z,100866.59
2022-08-26T04:10:34.967Z,100869.03
2022-08-26T04:13:03.138Z,100865.00
2022-08-26T04:15:30.515Z,100869.25
2022-08-26T04:17:57.566Z,100870.78
2022-08-26T04:20:24.528Z,100867.53
2022-08-26T04:22:51.841Z,100866.84
2022-08-26T04:25:20.465Z,100863.38
2022-08-26T04:27:47.232Z,100868.22
2022-08-26T04:30:15.801Z,100862.25
2022-08-26T04:32:43.530Z,100860.75
2022-08-26T04:35:10.650Z,100859.81
2022-08-26T04:37:37.763Z,100869.63
2022-08-26T04:40:06.826Z,100864.19
2022-08-26T04:42:35.029Z,100865.22
2022-08-26T04:45:10.361Z,100870.66
2022-08-26T04:47:38.118Z,100867.88
2022-08-26T04:50:06.952Z,100872.97
2022-08-26T04:52:38.168Z,100875.47
2022-08-26T04:55:08.471Z,100870.75
2022-08-26T04:57:39.273Z,100869.03
2022-08-26T05:00:10.436Z,100876.53
2022-08-26T05:02:41.187Z,100872.69
2022-08-26T05:05:10.438Z,100868.09
2022-08-26T05:07:36.855Z,100870.53
2022-08-26T05:10:05.116Z,100870.06
2022-08-26T05:12:36.422Z,100877.53
2022-08-26T05:15:06.099Z,100874.56
2022-08-26T05:17:35.213Z,100873.41
2022-08-26T05:20:05.202Z,100872.13
2022-08-26T05:22:38.528Z,100881.22
2022-08-26T05:25:06.799Z,100875.00
2022-08-26T05:27:35.040Z,100882.84
2022-08-26T05:30:01.758Z,100881.81
2022-08-26T05:32:28.257Z,100880.53
2022-08-26T05:34:57.003Z,100877.53
2022-08-26T05:37:25.201Z,100889.88
2022-08-26T05:39:52.051Z,100901.84
2022-08-26T05:42:24.064Z,100899.53
2022-08-26T05:44:55.973Z,100903.00
2022-08-26T05:47:24.240Z,100892.88
2022-08-26T05:49:51.568Z,100897.00
2022-08-26T05:52:19.661Z,100889.78
2022-08-26T05:57:14.505Z,100882.50
2022-08-26T05:59:40.985Z,100886.66
2022-08-26T06:02:08.460Z,100888.41
2022-08-26T06:04:36.758Z,100890.00
2022-08-26T06:07:04.387Z,100891.63
2022-08-26T06:09:32.298Z,100891.63
2022-08-26T06:12:01.801Z,100888.50
2022-08-26T06:14:30.468Z,100904.53
2022-08-26T06:16:57.256Z,100898.88
2022-08-26T06:19:23.759Z,100900.25
2022-08-26T06:21:54.749Z,100904.78
2022-08-26T06:24:43.000Z,100897.53
2022-08-26T06:27:13.448Z,100908.47
2022-08-26T06:29:40.697Z,100909.50
2022-08-26T06:32:08.796Z,100905.56
2022-08-26T06:34:35.523Z,100907.41
2022-08-26T06:37:03.289Z,100896.56
2022-08-26T06:39:31.467Z,100905.91
2022-08-26T06:41:59.389Z,100907.84
2022-08-26T06:44:26.720Z,100908.16
2022-08-26T06:46:53.523Z,100901.13
2022-08-26T06:49:27.137Z,100901.38
2022-08-26T06:51:58.410Z,100905.63
2022-08-26T06:54:25.590Z,100905.72
2022-08-26T06:56:52.301Z,100902.38
2022-08-26T06:59:18.900Z,100906.88
2022-08-26T07:01:46.376Z,100896.59
2022-08-26T07:04:20.257Z,100899.13
2022-08-26T07:06:52.260Z,100899.91
2022-08-26T07:09:21.132Z,100915.28
2022-08-26T07:11:48.141Z,100913.75
2022-08-26T07:14:16.720Z,100912.63
2022-08-26T07:16:43.241Z,100910.94
2022-08-26T07:19:11.618Z,100912.28
2022-08-26T07:21:41.453Z,100909.47
2022-08-26T07:24:09.309Z,100909.56
2022-08-26T07:26:38.329Z,100917.44
2022-08-26T07:29:06.930Z,100920.88
2022-08-26T07:31:39.258Z,100923.00
2022-08-26T07:34:10.502Z,100926.09
2022-08-26T07:36:37.009Z,100924.66
2022-08-26T07:39:04.451Z,100932.00
2022-08-26T07:41:31.017Z,100927.31
2022-08-26T07:43:58.510Z,100926.97
2022-08-26T07:46:27.280Z,100935.19
2022-08-26T07:48:57.073Z,100933.66
2022-08-26T07:51:24.789Z,100932.00
2022-08-26T07:53:52.354Z,100935.00
2022-08-26T07:56:20.960Z,100937.34
2022-08-26T07:58:51.292Z,100935.25
2022-08-26T08:01:18.801Z,100936.41
2022-08-26T08:03:45.480Z,100934.66
2022-08-26T08:06:12.026Z,100932.06
2022-08-26T08:08:41.300Z,100928.13
2022-08-26T08:11:08.253Z,100933.41
2022-08-26T08:13:37.989Z,100938.22
2022-08-26T08:16:05.392Z,100931.00
2022-08-26T08:18:31.918Z,100934.19
2022-08-26T08:21:21.097Z,100936.81
2022-08-26T08:23:47.212Z,100933.22
2022-08-26T08:26:14.085Z,100947.88
2022-08-26T08:28:46.223Z,100930.91
2022-08-26T08:31:56.070Z,100927.44
2022-08-26T08:34:15.588Z,100927.25
2022-08-26T08:36:42.142Z,100925.78
2022-08-26T08:39:10.453Z,100930.03
2022-08-26T08:41:55.340Z,100915.56
2022-08-26T08:47:04.385Z,100909.81
2022-08-26T08:49:34.492Z,100914.22
2022-08-26T08:52:18.783Z,100909.03
2022-08-26T08:54:46.570Z,100907.53
2022-08-26T08:57:27.237Z,100902.63
2022-08-26T09:00:08.221Z,100905.19
2022-08-26T09:02:43.077Z,100904.34
2022-08-26T09:05:24.718Z,100900.66
2022-08-26T09:08:12.488Z,100904.78
2022-08-26T09:10:43.623Z,100891.00
2022-08-26T09:13:16.808Z,100899.41
2022-08-26T09:16:02.880Z,100892.78
2022-08-26T09:18:50.150Z,100896.38
2022-08-26T09:21:19.912Z,100893.88
2022-08-26T09:23:49.618Z,100881.69
2022-08-26T09:26:19.324Z,100895.84
2022-08-26T09:28:55.085Z,100892.75
2022-08-26T09:31:31.861Z,100892.00
2022-08-26T09:34:05.352Z,100891.34
2022-08-26T09:36:41.351Z,100897.44
2022-08-26T09:39:29.262Z,100894.28
2022-08-26T09:42:23.160Z,100894.34
2022-08-26T09:44:54.326Z,100898.84
2022-08-26T09:47:30.133Z,100896.34
2022-08-26T09:50:19.954Z,100894.03
2022-08-26T09:52:47.387Z,100896.50
2022-08-26T09:55:22.607Z,100892.88
2022-08-26T09:57:54.662Z,100884.56
2022-08-26T10:00:32.082Z,100880.19
2022-08-26T10:03:02.768Z,100882.19
2022-08-26T10:05:57.041Z,100880.97
2022-08-26T10:08:34.487Z,100883.31
2022-08-26T10:11:04.499Z,100869.34
2022-08-26T10:13:31.257Z,100868.56
2022-08-26T10:16:06.114Z,100863.00
2022-08-26T10:18:42.275Z,100864.94
2022-08-26T10:21:11.688Z,100865.81
2022-08-26T10:23:43.304Z,100861.81
2022-08-26T10:26:22.325Z,100856.59
2022-08-26T10:29:04.077Z,100843.81
2022-08-26T10:31:46.744Z,100841.81
2022-08-26T10:34:16.953Z,100829.41
2022-08-26T10:37:16.676Z,100826.19
2022-08-26T10:40:01.992Z,100837.44
2022-08-26T10:42:52.959Z,100834.22
2022-08-26T10:45:25.328Z,100838.56
2022-08-26T10:48:10.091Z,100835.72
2022-08-26T10:50:39.414Z,100827.66
2022-08-26T10:53:17.934Z,100819.69
2022-08-26T10:56:03.346Z,100820.16
2022-08-26T10:58:56.095Z,100828.53
2022-08-26T11:01:43.474Z,100831.38
2022-08-26T11:04:48.346Z,100828.94
2022-08-26T11:07:36.870Z,100824.09
2022-08-26T11:10:28.594Z,100816.13
2022-08-26T11:13:00.919Z,100817.00
2022-08-26T11:15:30.234Z,100816.22
2022-08-26T11:18:04.659Z,100827.84
2022-08-26T11:20:41.998Z,100817.03
2022-08-26T11:23:23.964Z,100821.44
2022-08-26T11:25:57.267Z,100814.25
2022-08-26T11:28:35.481Z,100806.25
2022-08-26T11:31:04.481Z,100810.22
2022-08-26T11:33:51.293Z,100805.84
2022-08-26T11:36:42.746Z,100803.84
2022-08-26T11:39:24.874Z,100801.41
2022-08-26T11:41:55.661Z,100794.22
2022-08-26T11:44:37.583Z,100790.19
2022-08-26T11:47:11.486Z,100779.44
2022-08-26T11:49:38.717Z,100788.59
2022-08-26T11:52:21.117Z,100787.41
2022-08-26T11:55:02.515Z,100784.59
2022-08-26T11:57:32.889Z,100764.53
2022-08-26T12:00:00.239Z,100762.91
2022-08-26T12:02:27.814Z,100758.91
2022-08-26T12:04:54.863Z,100766.06
2022-08-26T12:07:26.032Z,100758.06
2022-08-26T12:10:02.299Z,100739.31
2022-08-26T12:12:38.543Z,100741.69
2022-08-26T12:15:18.592Z,100736.88
2022-08-26T12:17:50.487Z,100734.94
2022-08-26T12:20:54.007Z,100740.53
2022-08-26T12:23:40.869Z,100748.19
2022-08-26T12:26:21.307Z,100754.19
2022-08-26T12:29:00.822Z,100769.69
2022-08-26T12:31:43.369Z,100751.81
2022-08-26T12:34:17.841Z,100756.25
2022-08-26T12:36:53.726Z,100742.72
2022-08-26T12:39:28.937Z,100745.50
2022-08-26T12:41:58.390Z,100736.69
2022-08-26T12:44:53.745Z,100732.31
2022-08-26T12:47:42.645Z,100730.25
2022-08-26T12:50:27.231Z,100722.22
2022-08-26T12:53:02.280Z,100714.78
2022-08-26T12:55:33.577Z,100713.78
2022-08-26T12:58:22.898Z,100716.47
2022-08-26T13:00:56.457Z,100704.50
2022-08-26T13:03:50.188Z,100707.84
2022-08-26T13:06:27.700Z,100707.69
2022-08-26T13:09:00.185Z,100711.94
2022-08-26T13:11:35.507Z,100715.63
2022-08-26T13:14:21.009Z,100728.44
2022-08-26T13:16:50.563Z,100732.22
2022-08-26T13:19:22.449Z,100733.50
2022-08-26T13:21:57.417Z,100730.78
2022-08-26T13:24:37.124Z,100726.00
2022-08-26T13:27:07.523Z,100722.94
2022-08-26T13:29:35.694Z,100723.00
2022-08-26T13:32:04.755Z,100721.47
2022-08-26T13:34:31.491Z,100724.31
2022-08-26T13:36:59.113Z,100725.50
2022-08-26T13:39:26.583Z,100736.25
2022-08-26T13:41:53.312Z,100725.41
2022-08-26T13:44:21.497Z,100726.56
2022-08-26T13:46:48.117Z,100733.75
2022-08-26T13:49:14.593Z,100743.69
2022-08-26T13:51:41.789Z,100743.59
2022-08-26T13:54:08.793Z,100755.19
2022-08-26T13:56:36.176Z,100750.75
2022-08-26T13:59:04.079Z,100748.75
2022-08-26T14:01:32.090Z,100747.94
2022-08-26T14:03:59.698Z,100761.44
2022-08-26T14:06:26.544Z,100763.28
2022-08-26T14:08:53.207Z,100751.31
2022-08-26T14:11:21.368Z,100756.03
2022-08-26T14:13:47.896Z,100752.06
2022-08-26T14:16:27.103Z,100757.53
2022-08-26T14:18:54.203Z,100748.25
2022-08-26T14:21:21.305Z,100752.91
2022-08-26T14:23:47.898Z,100743.69
2022-08-26T14:26:28.940Z,100729.84
2022-08-26T14:28:58.592Z,100731.88
2022-08-26T14:31:26.898Z,100731.53
2022-08-26T14:33:54.861Z,100724.00
2022-08-26T14:36:33.354Z,100729.59
2022-08-26T14:39:05.031Z,100746.63
2022-08-26T14:41:33.743Z,100746.50
2022-08-26T14:44:05.930Z,100739.88
2022-08-26T14:46:39.886Z,100732.53
2022-08-26T14:49:10.394Z,100736.44
2022-08-26T14:51:38.078Z,100734.91
2022-08-26T14:54:13.787Z,100735.91
2022-08-26T14:56:56.486Z,100734.56
2022-08-26T14:59:33.212Z,100737.53
2022-08-26T15:02:00.631Z,100725.09
2022-08-26T15:04:28.519Z,100733.34
2022-08-26T15:06:56.847Z,100738.38
2022-08-26T15:09:24.860Z,100740.56
2022-08-26T15:11:53.094Z,100746.69
2022-08-26T15:14:21.590Z,100742.00
2022-08-26T15:16:50.160Z,100738.25
2022-08-26T15:19:17.725Z,100746.34
2022-08-26T15:21:45.481Z,100755.19
2022-08-26T15:24:13.133Z,100750.13
2022-08-26T15:26:39.962Z,100750.50
2022-08-26T15:29:06.885Z,100751.09
2022-08-26T15:31:38.584Z,100754.28
2022-08-26T15:34:12.138Z,100765.47
2022-08-26T15:36:44.685Z,100758.88
2022-08-26T15:39:11.342Z,100749.59
2022-08-26T15:41:38.378Z,100754.66
2022-08-26T15:44:07.702Z,100763.16
2022-08-26T15:46:35.871Z,100770.22
2022-08-26T15:49:05.864Z,100764.59
2022-08-26T15:51:45.513Z,100760.50
2022-08-26T15:54:12.738Z,100773.09
2022-08-26T15:56:39.206Z,100751.69
2022-08-26T15:59:08.386Z,100755.81
2022-08-26T16:01:36.046Z,100755.06
2022-08-26T16:04:04.592Z,100758.22
2022-08-26T16:06:35.939Z,100755.16
2022-08-26T16:09:05.852Z,100755.41
2022-08-26T16:11:33.973Z,100766.81
2022-08-26T16:14:00.902Z,100773.19
2022-08-26T16:16:27.517Z,100776.84
2022-08-26T16:18:54.656Z,100767.63
2022-08-26T16:21:25.468Z,100779.59
2022-08-26T16:23:52.211Z,100782.41
2022-08-26T16:26:22.639Z,100782.69
2022-08-26T16:28:49.074Z,100791.38
2022-08-26T16:31:16.180Z,100784.00
2022-08-26T16:33:42.908Z,100787.75
2022-08-26T16:36:10.133Z,100783.66
2022-08-26T16:38:38.640Z,100789.16
2022-08-26T16:41:06.163Z,100788.91
2022-08-26T16:43:33.949Z,100807.78
2022-08-26T16:46:00.634Z,100801.91
2022-08-26T16:48:27.940Z,100809.91
2022-08-26T16:50:55.493Z,100816.44
2022-08-26T16:53:25.663Z,100811.09
2022-08-26T16:55:52.182Z,100799.75
2022-08-26T16:58:22.261Z,100804.94
2022-08-26T17:00:49.529Z,100814.25
2022-08-26T17:03:16.150Z,100816.31
2022-08-26T17:05:42.736Z,100826.59
2022-08-26T17:08:09.501Z,100825.19
2022-08-26T17:10:37.684Z,100830.81
2022-08-26T17:13:07.301Z,100826.19
2022-08-26T17:15:35.222Z,100832.16
2022-08-26T17:18:02.266Z,100829.09
2022-08-26T17:20:29.879Z,100840.91
2022-08-26T17:22:56.395Z,100831.06
2022-08-26T17:25:27.063Z,100838.94
2022-08-26T17:27:53.918Z,100840.13
2022-08-26T17:30:25.468Z,100841.44
2022-08-26T17:32:52.356Z,100837.63
2022-08-26T17:35:20.330Z,100832.56
2022-08-26T17:37:47.149Z,100825.97
2022-08-26T17:40:18.367Z,100836.09
2022-08-26T17:42:44.986Z,100837.50
2022-08-26T17:45:12.663Z,100839.84
2022-08-26T17:47:41.366Z,100841.88
2022-08-26T17:50:12.999Z,100834.78
2022-08-26T17:52:41.309Z,100840.25
2022-08-26T17:55:17.106Z,100843.09
2022-08-26T17:57:43.912Z,100840.34
2022-08-26T18:00:22.601Z,100851.06
2022-08-26T18:02:49.116Z,100849.88
2022-08-26T18:05:17.423Z,100848.78
2022-08-26T18:07:44.801Z,100849.06
2022-08-26T18:10:15.494Z,100852.28
2022-08-26T18:12:42.403Z,100857.69
2022-08-26T18:15:11.494Z,100857.22
2022-08-26T18:17:39.274Z,100866.84
2022-08-26T18:20:16.053Z,100865.91
2022-08-26T18:22:43.708Z,100861.34
2022-08-26T18:25:11.623Z,100867.53
2022-08-26T18:27:38.970Z,100870.97
2022-08-26T18:30:13.402Z,100863.72
2022-08-26T18:32:42.685Z,100871.84
2022-08-26T18:35:10.354Z,100874.88
2022-08-26T18:37:37.784Z,100867.25
2022-08-26T18:40:07.100Z,100876.13
2022-08-26T18:42:35.230Z,100875.66
2022-08-26T18:45:15.977Z,100876.34
2022-08-26T18:47:43.230Z,100885.50
2022-08-26T18:50:11.489Z,100885.34
2022-08-26T18:52:38.842Z,100881.44
2022-08-26T18:55:07.654Z,100881.22
2022-08-26T18:57:36.173Z,100896.56
2022-08-26T19:00:11.512Z,100886.75
2022-08-26T19:02:38.857Z,100900.63
2022-08-26T19:05:07.151Z,100900.84
2022-08-26T19:07:45.224Z,100903.03
2022-08-26T19:10:14.519Z,100895.63
2022-08-26T19:12:42.280Z,100898.19
2022-08-26T19:15:09.558Z,100887.69
2022-08-26T19:17:37.295Z,100888.28
2022-08-26T19:20:09.657Z,100888.28
2022-08-26T19:22:37.522Z,100886.19
2022-08-26T19:25:06.062Z,100880.91
2022-08-26T19:27:33.883Z,100888.97
2022-08-26T19:30:00.596Z,100885.25
2022-08-26T19:32:27.047Z,100888.47
2022-08-26T19:34:54.523Z,100888.97
2022-08-26T19:37:24.675Z,100888.84
2022-08-26T19:39:51.354Z,100877.09
2022-08-26T19:42:17.909Z,100882.75
2022-08-26T19:45:03.348Z,100889.56
2022-08-26T19:47:31.544Z,100889.56
2022-08-26T19:49:58.007Z,100886.09
2022-08-26T19:52:30.093Z,100883.31
2022-08-26T19:54:57.609Z,100886.53
2022-08-26T19:57:24.186Z,100877.91
2022-08-26T19:59:50.660Z,100875.50
2022-08-26T20:02:18.052Z,100882.84
2022-08-26T20:04:44.612Z,100882.72
2022-08-26T20:07:15.327Z,100897.72
2022-08-26T20:09:45.161Z,100901.28
2022-08-26T20:12:12.365Z,100894.25
2022-08-26T20:14:42.192Z,100907.03
2022-08-26T20:17:13.129Z,100914.97
2022-08-26T20:20:01.542Z,100920.28
2022-08-26T20:22:28.208Z,100924.31
2022-08-26T20:24:54.709Z,100918.09
2022-08-26T20:27:38.142Z,100929.16
2022-08-26T20:30:07.633Z,100923.06
2022-08-26T20:32:36.366Z,100926.16
2022-08-26T20:35:04.602Z,100920.28
2022-08-26T20:37:31.363Z,100917.72
2022-08-26T20:39:58.250Z,100924.31
2022-08-26T20:42:26.019Z,100930.06
2022-08-26T20:44:54.473Z,100923.97
2022-08-26T20:47:22.818Z,100930.66
2022-08-26T20:49:52.386Z,100938.13
2022-08-26T20:52:21.657Z,100936.16
2022-08-26T20:54:48.086Z,100941.94
2022-08-26T20:57:14.656Z,100935.81
2022-08-26T20:59:42.945Z,100933.97
2022-08-26T21:02:09.817Z,100949.66
2022-08-26T21:04:38.108Z,100945.28
2022-08-26T21:07:06.309Z,100953.31
2022-08-26T21:09:33.109Z,100958.47
2022-08-26T21:12:00.622Z,100959.50
2022-08-26T21:14:28.194Z,100955.13
2022-08-26T21:16:56.582Z,100964.56
2022-08-26T21:19:23.632Z,100959.16
2022-08-26T21:21:50.686Z,100957.06
2022-08-26T21:24:17.724Z,100963.44
2022-08-26T21:26:45.145Z,100965.78
2022-08-26T21:29:13.766Z,100965.72
2022-08-26T21:31:46.022Z,100968.47
2022-08-26T21:34:16.108Z,100979.16
2022-08-26T21:36:42.813Z,100977.84
2022-08-26T21:39:11.989Z,100971.66
2022-08-26T21:41:42.665Z,100971.66
2022-08-26T21:44:17.781Z,100970.19
2022-08-26T21:46:45.870Z,100966.00
2022-08-26T21:49:15.626Z,100968.97
2022-08-26T21:51:46.159Z,100965.59
2022-08-26T21:54:13.295Z,100965.97
2022-08-26T21:56:46.688Z,100959.31
2022-08-26T21:59:18.066Z,100960.75
2022-08-26T22:01:45.285Z,100964.25
2022-08-26T22:04:11.729Z,100958.25
2022-08-26T22:06:47.136Z,100958.56
2022-08-26T22:09:15.383Z,100967.75
2022-08-26T22:11:42.934Z,100967.06
2022-08-26T22:14:10.605Z,100970.00
2022-08-26T22:16:38.009Z,100961.63
2022-08-26T22:19:05.518Z,100975.09
2022-08-26T22:21:32.577Z,100972.94
2022-08-26T22:23:59.081Z,100974.50
2022-08-26T22:26:29.503Z,100970.44
2022-08-26T22:28:58.963Z,100971.19
2022-08-26T22:31:37.893Z,100967.69
2022-08-26T22:34:08.998Z,100968.34
2022-08-26T22:36:43.208Z,100975.75
2022-08-26T22:39:14.734Z,100976.50
2022-08-26T22:41:43.241Z,100980.53
2022-08-26T22:44:11.722Z,100971.72
2022-08-26T22:46:39.961Z,100972.88
2022-08-26T22:49:09.480Z,100977.59
2022-08-26T22:51:43.884Z,100974.91
2022-08-26T22:54:10.954Z,100971.38
2022-08-26T22:56:40.793Z,100980.94
2022-08-26T22:59:12.060Z,100966.44
2022-08-26T23:01:42.265Z,100965.44
2022-08-26T23:04:13.113Z,100962.50
2022-08-26T23:06:43.139Z,100958.47
2022-08-26T23:09:10.491Z,100961.03
2022-08-26T23:11:39.891Z,100962.69
2022-08-26T23:14:09.938Z,100971.16
2022-08-26T23:16:41.683Z,100969.94
2022-08-26T23:19:10.541Z,100972.50
2022-08-26T23:21:38.106Z,100969.75
2022-08-26T23:24:06.381Z,100969.78
2022-08-26T23:26:34.627Z,100957.91
2022-08-26T23:29:02.010Z,100961.75
2022-08-26T23:31:28.685Z,100971.69
2022-08-26T23:34:13.745Z,100964.28
2022-08-26T23:36:42.344Z,100959.72
2022-08-26T23:39:10.977Z,100961.66
2022-08-26T23:41:38.345Z,100961.97
2022-08-26T23:44:12.227Z,100962.31
2022-08-26T23:46:39.606Z,100963.47
2022-08-26T23:49:06.536Z,100956.97
2022-08-26T23:51:51.650Z,100955.06
2022-08-26T23:54:19.545Z,100960.78
2022-08-26T23:56:46.212Z,100947.78
2022-08-26T23:59:12.929Z,100943.19
